eat1 at 2026-08-31
00:14:29 UTCDEBUG [2026-08-31 00:14:29] ----- wrcc_downloadData() -----
TRACE [2026-08-31 00:14:29] Downloading WRCC data for unitID eat1 ...
DEBUG [2026-08-31 00:14:30] ----- wrcc_parseData() -----
DEBUG [2026-08-31 00:14:30] ----- wrcc_identifyDataFormat() -----
DEBUG [2026-08-31 00:14:30] ----- addClustering() -----
DEBUG [2026-08-31 00:14:30] ----- wrcc_qualityControl() -----
TRACE [2026-08-31 00:14:30] Applying EBAM QC rules ...
DEBUG [2026-08-31 00:14:30] ----- wrcc_EBAMQualityControl() -----
TRACE [2026-08-31 00:14:30] Flagging 1 rows with invalid Type information
TRACE [2026-08-31 00:14:30] Bad Types: NA
TRACE [2026-08-31 00:14:30] Flow has 0 missing or out of range values
TRACE [2026-08-31 00:14:30] AT has 0 missing or out of range values
TRACE [2026-08-31 00:14:30] RHi has 0 missing or out of range values
TRACE [2026-08-31 00:14:30] Conc has 0 missing or out of range values
TRACE [2026-08-31 00:14:30] datetime has 0 missing or out of range values
TRACE [2026-08-31 00:14:30] Retaining 142 rows of measurements; 1 bad rows flagged
DateTime,GPSLat,GPSLon,Type,SerialNumber,ConcRT,ConcHlyAv,AvAirFlw,AvAirTemp,RelHumidity,Misc2,SensorIntAT,SensorIntRH,WindSpeed,WindDir,BatteryVoltage,Alarm,monitorName,monitorType,QCFlag_anyBad,QCFlag_reasonCode,QCFlag_badLon,QCFlag_badLat,QCFlag_badType,QCFlag_badFlow,QCFlag_badAT,QCFlag_badRHi,QCFlag_badConcHr,QCFlag_badDateAndTime,QCFlag_duplicateHr,datetime,clusterLon,clusterLat,clusterID
2608250000,35.973667,-105.332703,0,417000,-2.999,-3.999,16.7,29.7,0,NA,44.9,6,2,344,14,0,AQB Smoke EBAM T-1,EBAM,FALSE,NA,FALSE,FALSE,FALSE,FALSE,FALSE,FALSE,FALSE,FALSE,FALSE,2026-08-25T00:00:00Z,-105.332687,35.973637,1
2608250100,35.973667,-105.332703,0,417000,2,6,16.7,28.2,0,NA,43,7,1.7,356,14,0,AQB Smoke EBAM T-1,EBAM,FALSE,NA,FALSE,FALSE,FALSE,FALSE,FALSE,FALSE,FALSE,FALSE,FALSE,2026-08-25T01:00:00Z,-105.332687,35.973637,1
2608250200,35.973667,-105.332703,0,417000,8,5,16.7,24.5,0,NA,37.1,10,0.9,254,14.1,0,AQB Smoke EBAM T-1,EBAM,FALSE,NA,FALSE,FALSE,FALSE,FALSE,FALSE,FALSE,FALSE,FALSE,FALSE,2026-08-25T02:00:00Z,-105.332687,35.973637,1
2608250300,35.973667,-105.332703,0,417000,0,1,16.7,19.1,0,NA,30.5,17,1,243,14.1,0,AQB Smoke EBAM T-1,EBAM,FALSE,NA,FALSE,FALSE,FALSE,FALSE,FALSE,FALSE,FALSE,FALSE,FALSE,2026-08-25T03:00:00Z,-105.332687,35.973637,1
2608250400,35.973667,-105.332703,0,417000,-3.999,-1.999,16.7,18.9,0,NA,27.8,20,0.8,193,14.1,0,AQB Smoke EBAM T-1,EBAM,FALSE,NA,FALSE,FALSE,FALSE,FALSE,FALSE,FALSE,FALSE,FALSE,FALSE,2026-08-25T04:00:00Z,-105.332687,35.973637,1
2608250500,35.973667,-105.332703,0,417000,-0.9999,1,16.7,18.8,0,NA,27.6,21,0.7,197,14.1,0,AQB Smoke EBAM T-1,EBAM,FALSE,NA,FALSE,FALSE,FALSE,FALSE,FALSE,FALSE,FALSE,FALSE,FALSE,2026-08-25T05:00:00Z,-105.332687,35.973637,1
2608250600,35.973667,-105.332703,0,417000,3,-1.999,16.7,15.9,0,NA,25.4,25,0.6,245,14.1,0,AQB Smoke EBAM T-1,EBAM,FALSE,NA,FALSE,FALSE,FALSE,FALSE,FALSE,FALSE,FALSE,FALSE,FALSE,2026-08-25T06:00:00Z,-105.332687,35.973637,1
2608250700,35.973667,-105.332703,0,417000,5,10,16.7,14.2,0,NA,23.2,28,0.7,234,14.1,0,AQB Smoke EBAM T-1,EBAM,FALSE,NA,FALSE,FALSE,FALSE,FALSE,FALSE,FALSE,FALSE,FALSE,FALSE,2026-08-25T07:00:00Z,-105.332687,35.973637,1
2608250800,35.973667,-105.332703,0,417000,1,-2.999,16.7,13,0,NA,21.7,30,1,257,14.1,0,AQB Smoke EBAM T-1,EBAM,FALSE,NA,FALSE,FALSE,FALSE,FALSE,FALSE,FALSE,FALSE,FALSE,FALSE,2026-08-25T08:00:00Z,-105.332687,35.973637,1
2608250900,35.973667,-105.332703,0,417000,3,4,16.7,12.8,0,NA,21.3,31,0.7,276,14.1,0,AQB Smoke EBAM T-1,EBAM,FALSE,NA,FALSE,FALSE,FALSE,FALSE,FALSE,FALSE,FALSE,FALSE,FALSE,2026-08-25T09:00:00Z,-105.332687,35.973637,1
2608251000,35.973667,-105.332703,0,417000,0,1,16.7,11.8,0,NA,20.3,33,0.8,289,14.1,0,AQB Smoke EBAM T-1,EBAM,FALSE,NA,FALSE,FALSE,FALSE,FALSE,FALSE,FALSE,FALSE,FALSE,FALSE,2026-08-25T10:00:00Z,-105.332687,35.973637,1
2608251100,35.973667,-105.332703,0,417000,-1.999,-4.999,16.7,10.5,0,NA,19.3,35,0.6,272,14.1,0,AQB Smoke EBAM T-1,EBAM,FALSE,NA,FALSE,FALSE,FALSE,FALSE,FALSE,FALSE,FALSE,FALSE,FALSE,2026-08-25T11:00:00Z,-105.332687,35.973637,1
2608251200,35.973667,-105.332703,0,417000,1,4,16.7,10.2,0,NA,18.6,36,0.5,296,14.1,0,AQB Smoke EBAM T-1,EBAM,FALSE,NA,FALSE,FALSE,FALSE,FALSE,FALSE,FALSE,FALSE,FALSE,FALSE,2026-08-25T12:00:00Z,-105.332687,35.973637,1
2608251300,35.973667,-105.332703,0,417000,5,-1.999,16.7,9.7,0,NA,18.2,37,0.8,293,14.1,0,AQB Smoke EBAM T-1,EBAM,FALSE,NA,FALSE,FALSE,FALSE,FALSE,FALSE,FALSE,FALSE,FALSE,FALSE,2026-08-25T13:00:00Z,-105.332687,35.973637,1
2608251400,35.973667,-105.332703,0,417000,-4.999,-4.999,16.7,12.6,0,NA,20.9,32,0.6,294,14.1,0,AQB Smoke EBAM T-1,EBAM,FALSE,NA,FALSE,FALSE,FALSE,FALSE,FALSE,FALSE,FALSE,FALSE,FALSE,2026-08-25T14:00:00Z,-105.332687,35.973637,1
2608251500,35.973667,-105.332703,0,417000,0,4,16.7,18.3,0,NA,28.5,21,0.6,338,14.1,0,AQB Smoke EBAM T-1,EBAM,FALSE,NA,FALSE,FALSE,FALSE,FALSE,FALSE,FALSE,FALSE,FALSE,FALSE,2026-08-25T15:00:00Z,-105.332687,35.973637,1
2608251600,35.973667,-105.332703,0,417000,2,3,16.7,23.9,0,NA,36.7,14,0.8,314,14,0,AQB Smoke EBAM T-1,EBAM,FALSE,NA,FALSE,FALSE,FALSE,FALSE,FALSE,FALSE,FALSE,FALSE,FALSE,2026-08-25T16:00:00Z,-105.332687,35.973637,1
2608251700,35.973667,-105.332703,0,417000,0,-4.999,16.7,26.8,0,NA,42.2,11,1.2,200,14,0,AQB Smoke EBAM T-1,EBAM,FALSE,NA,FALSE,FALSE,FALSE,FALSE,FALSE,FALSE,FALSE,FALSE,FALSE,2026-08-25T17:00:00Z,-105.332687,35.973637,1
2608251800,35.973637,-105.332687,0,417000,8,13,16.7,28.8,0,NA,45,9,1.4,157,14,0,AQB Smoke EBAM T-1,EBAM,FALSE,NA,FALSE,FALSE,FALSE,FALSE,FALSE,FALSE,FALSE,FALSE,FALSE,2026-08-25T18:00:00Z,-105.332687,35.973637,1
2608251900,35.973637,-105.332687,NA,NA,NA,NA,NA,NA,NA,NA,NA,NA,NA,NA,NA,NA,AQB Smoke EBAM T-1,EBAM,TRUE,badType,FALSE,FALSE,TRUE,FALSE,FALSE,FALSE,FALSE,FALSE,FALSE,2026-08-25T19:00:00Z,-105.332687,35.973637,1
2608252000,35.973637,-105.332687,0,417000,-3.999,-3.999,16.7,18.9,0,NA,28,31,0.6,257,14.1,0,AQB Smoke EBAM T-1,EBAM,FALSE,NA,FALSE,FALSE,FALSE,FALSE,FALSE,FALSE,FALSE,FALSE,FALSE,2026-08-25T20:00:00Z,-105.332687,35.973637,1
2608252100,35.973637,-105.332687,0,417000,-2.999,-0.9999,16.7,19.3,0,NA,30,32,0.8,265,14.1,0,AQB Smoke EBAM T-1,EBAM,FALSE,NA,FALSE,FALSE,FALSE,FALSE,FALSE,FALSE,FALSE,FALSE,FALSE,2026-08-25T21:00:00Z,-105.332687,35.973637,1
2608252200,35.973637,-105.332687,0,417000,-4.999,-4.999,16.7,22.9,0,NA,33.5,22,1,242,14,0,AQB Smoke EBAM T-1,EBAM,FALSE,NA,FALSE,FALSE,FALSE,FALSE,FALSE,FALSE,FALSE,FALSE,FALSE,2026-08-25T22:00:00Z,-105.332687,35.973637,1
2608252300,35.973637,-105.332687,0,417000,3,9,16.6,27.5,0,NA,41.2,11,1.1,213,14,0,AQB Smoke EBAM T-1,EBAM,FALSE,NA,FALSE,FALSE,FALSE,FALSE,FALSE,FALSE,FALSE,FALSE,FALSE,2026-08-25T23:00:00Z,-105.332687,35.973637,1
2608260000,35.973637,-105.332687,0,417000,0,-2.999,16.7,27.5,0,NA,39.5,9,2.6,260,14,0,AQB Smoke EBAM T-1,EBAM,FALSE,NA,FALSE,FALSE,FALSE,FALSE,FALSE,FALSE,FALSE,FALSE,FALSE,2026-08-26T00:00:00Z,-105.332687,35.973637,1
2608260100,35.973637,-105.332687,0,417000,1,3,16.7,27.7,0,NA,40.2,9,1.5,255,14,0,AQB Smoke EBAM T-1,EBAM,FALSE,NA,FALSE,FALSE,FALSE,FALSE,FALSE,FALSE,FALSE,FALSE,FALSE,2026-08-26T01:00:00Z,-105.332687,35.973637,1
2608260200,35.973637,-105.332687,0,417000,10,7,16.7,23.1,0,NA,36.3,15,1.2,83,14.1,0,AQB Smoke EBAM T-1,EBAM,FALSE,NA,FALSE,FALSE,FALSE,FALSE,FALSE,FALSE,FALSE,FALSE,FALSE,2026-08-26T02:00:00Z,-105.332687,35.973637,1
2608260300,35.973637,-105.332687,0,417000,4,2,16.7,19.9,0,NA,30,20,1.1,153,14.1,0,AQB Smoke EBAM T-1,EBAM,FALSE,NA,FALSE,FALSE,FALSE,FALSE,FALSE,FALSE,FALSE,FALSE,FALSE,2026-08-26T03:00:00Z,-105.332687,35.973637,1
2608260400,35.973637,-105.332687,0,417000,1,2,16.7,19.1,0,NA,28.2,23,0.8,148,14.1,0,AQB Smoke EBAM T-1,EBAM,FALSE,NA,FALSE,FALSE,FALSE,FALSE,FALSE,FALSE,FALSE,FALSE,FALSE,2026-08-26T04:00:00Z,-105.332687,35.973637,1
2608260500,35.973637,-105.332687,0,417000,7,3,16.7,16.9,0,NA,26.5,30,1.1,138,14.1,0,AQB Smoke EBAM T-1,EBAM,FALSE,NA,FALSE,FALSE,FALSE,FALSE,FALSE,FALSE,FALSE,FALSE,FALSE,2026-08-26T05:00:00Z,-105.332687,35.973637,1
2608260600,35.973637,-105.332687,0,417000,1,-3.999,16.7,15,0,NA,23.8,36,0.7,190,14.1,0,AQB Smoke EBAM T-1,EBAM,FALSE,NA,FALSE,FALSE,FALSE,FALSE,FALSE,FALSE,FALSE,FALSE,FALSE,2026-08-26T06:00:00Z,-105.332687,35.973637,1
2608260700,35.973637,-105.332687,0,417000,5,15,16.7,13.8,0,NA,22.7,38,0.6,152,14.1,0,AQB Smoke EBAM T-1,EBAM,FALSE,NA,FALSE,FALSE,FALSE,FALSE,FALSE,FALSE,FALSE,FALSE,FALSE,2026-08-26T07:00:00Z,-105.332687,35.973637,1
2608260800,35.973637,-105.332687,0,417000,8,6,16.7,12,0,NA,21.2,42,0.6,259,14.1,0,AQB Smoke EBAM T-1,EBAM,FALSE,NA,FALSE,FALSE,FALSE,FALSE,FALSE,FALSE,FALSE,FALSE,FALSE,2026-08-26T08:00:00Z,-105.332687,35.973637,1
2608260900,35.973637,-105.332687,0,417000,1,-0.9999,16.7,11.4,0,NA,20.5,42,0.6,265,14.1,0,AQB Smoke EBAM T-1,EBAM,FALSE,NA,FALSE,FALSE,FALSE,FALSE,FALSE,FALSE,FALSE,FALSE,FALSE,2026-08-26T09:00:00Z,-105.332687,35.973637,1
2608261000,35.973637,-105.332687,0,417000,-3.999,3,16.7,11.6,0,NA,20.4,43,1,255,14,0,AQB Smoke EBAM T-1,EBAM,FALSE,NA,FALSE,FALSE,FALSE,FALSE,FALSE,FALSE,FALSE,FALSE,FALSE,2026-08-26T10:00:00Z,-105.332687,35.973637,1
2608261100,35.973637,-105.332687,0,417000,6,5,16.7,11.1,0,NA,19.6,44,0.8,261,14.1,0,AQB Smoke EBAM T-1,EBAM,FALSE,NA,FALSE,FALSE,FALSE,FALSE,FALSE,FALSE,FALSE,FALSE,FALSE,2026-08-26T11:00:00Z,-105.332687,35.973637,1
2608261200,35.973637,-105.332687,0,417000,6,7,16.7,10.6,0,NA,19,45,1.2,268,14.1,0,AQB Smoke EBAM T-1,EBAM,FALSE,NA,FALSE,FALSE,FALSE,FALSE,FALSE,FALSE,FALSE,FALSE,FALSE,2026-08-26T12:00:00Z,-105.332687,35.973637,1
2608261300,35.973637,-105.332687,0,417000,1,-2.999,16.7,10.2,0,NA,18.9,44,1,268,14,0,AQB Smoke EBAM T-1,EBAM,FALSE,NA,FALSE,FALSE,FALSE,FALSE,FALSE,FALSE,FALSE,FALSE,FALSE,2026-08-26T13:00:00Z,-105.332687,35.973637,1
2608261400,35.973637,-105.332687,0,417000,-4.999,-4.999,16.7,12.3,0,NA,20.9,38,0.7,304,14.1,0,AQB Smoke EBAM T-1,EBAM,FALSE,NA,FALSE,FALSE,FALSE,FALSE,FALSE,FALSE,FALSE,FALSE,FALSE,2026-08-26T14:00:00Z,-105.332687,35.973637,1
2608261500,35.973637,-105.332687,0,417000,-1.999,0,16.7,17,0,NA,27.5,27,0.5,270,14.1,0,AQB Smoke EBAM T-1,EBAM,FALSE,NA,FALSE,FALSE,FALSE,FALSE,FALSE,FALSE,FALSE,FALSE,FALSE,2026-08-26T15:00:00Z,-105.332687,35.973637,1
2608261600,35.973637,-105.332687,0,417000,2,2,16.7,21.6,0,NA,34.9,18,0.7,154,14,0,AQB Smoke EBAM T-1,EBAM,FALSE,NA,FALSE,FALSE,FALSE,FALSE,FALSE,FALSE,FALSE,FALSE,FALSE,2026-08-26T16:00:00Z,-105.332687,35.973637,1
2608261700,35.973614,-105.33268,0,417000,1,-1.999,16.7,25.7,0,NA,40.9,13,0.9,162,14,0,AQB Smoke EBAM T-1,EBAM,FALSE,NA,FALSE,FALSE,FALSE,FALSE,FALSE,FALSE,FALSE,FALSE,FALSE,2026-08-26T17:00:00Z,-105.332687,35.973637,1
2608261800,35.973614,-105.33268,0,417000,11,13,16.7,27.3,0,NA,44.4,11,1.4,138,14,0,AQB Smoke EBAM T-1,EBAM,FALSE,NA,FALSE,FALSE,FALSE,FALSE,FALSE,FALSE,FALSE,FALSE,FALSE,2026-08-26T18:00:00Z,-105.332687,35.973637,1
2608261900,35.973614,-105.33268,0,417000,4,7,16.7,28,0,NA,43.4,11,1.8,154,14,0,AQB Smoke EBAM T-1,EBAM,FALSE,NA,FALSE,FALSE,FALSE,FALSE,FALSE,FALSE,FALSE,FALSE,FALSE,2026-08-26T19:00:00Z,-105.332687,35.973637,1
2608262000,35.973614,-105.33268,0,417000,4,1,16.7,26.7,0,NA,41.6,11,1.9,181,14,0,AQB Smoke EBAM T-1,EBAM,FALSE,NA,FALSE,FALSE,FALSE,FALSE,FALSE,FALSE,FALSE,FALSE,FALSE,2026-08-26T20:00:00Z,-105.332687,35.973637,1
2608262100,35.973614,-105.33268,0,417000,4,-0.9999,16.7,24.5,0,NA,39.4,12,1.8,118,14,0,AQB Smoke EBAM T-1,EBAM,FALSE,NA,FALSE,FALSE,FALSE,FALSE,FALSE,FALSE,FALSE,FALSE,FALSE,2026-08-26T21:00:00Z,-105.332687,35.973637,1
2608262200,35.973614,-105.33268,0,417000,-1.999,5,16.7,27.4,0,NA,42.9,9,1.9,110,14,0,AQB Smoke EBAM T-1,EBAM,FALSE,NA,FALSE,FALSE,FALSE,FALSE,FALSE,FALSE,FALSE,FALSE,FALSE,2026-08-26T22:00:00Z,-105.332687,35.973637,1
2608262300,35.973614,-105.33268,0,417000,24,21,16.6,21,0,NA,36.7,19,2.1,56,14,0,AQB Smoke EBAM T-1,EBAM,FALSE,NA,FALSE,FALSE,FALSE,FALSE,FALSE,FALSE,FALSE,FALSE,FALSE,2026-08-26T23:00:00Z,-105.332687,35.973637,1
2608270000,35.973614,-105.33268,0,417000,-2.999,-2.999,16.7,18.9,0,NA,30.3,27,1.2,274,14.1,0,AQB Smoke EBAM T-1,EBAM,FALSE,NA,FALSE,FALSE,FALSE,FALSE,FALSE,FALSE,FALSE,FALSE,FALSE,2026-08-27T00:00:00Z,-105.332687,35.973637,1
2608270100,35.973614,-105.33268,0,417000,4,8,16.7,17.4,0,NA,28.2,32,1,234,14.1,0,AQB Smoke EBAM T-1,EBAM,FALSE,NA,FALSE,FALSE,FALSE,FALSE,FALSE,FALSE,FALSE,FALSE,FALSE,2026-08-27T01:00:00Z,-105.332687,35.973637,1
2608270200,35.973614,-105.33268,0,417000,-0.9999,-4.999,16.7,15.4,0,NA,24,39,1.3,283,14.1,0,AQB Smoke EBAM T-1,EBAM,FALSE,NA,FALSE,FALSE,FALSE,FALSE,FALSE,FALSE,FALSE,FALSE,FALSE,2026-08-27T02:00:00Z,-105.332687,35.973637,1
2608270300,35.973614,-105.33268,0,417000,0,15,16.7,12.8,0,NA,22.6,44,1.4,327,13.9,0,AQB Smoke EBAM T-1,EBAM,FALSE,NA,FALSE,FALSE,FALSE,FALSE,FALSE,FALSE,FALSE,FALSE,FALSE,2026-08-27T03:00:00Z,-105.332687,35.973637,1
2608270400,35.973614,-105.33268,0,417000,4,-4.999,16.7,12.3,0,NA,21.1,44,0.9,243,14,0,AQB Smoke EBAM T-1,EBAM,FALSE,NA,FALSE,FALSE,FALSE,FALSE,FALSE,FALSE,FALSE,FALSE,FALSE,2026-08-27T04:00:00Z,-105.332687,35.973637,1
2608270500,35.973614,-105.33268,0,417000,12,20,16.7,12.1,0,NA,20.5,44,2.5,254,14.1,0,AQB Smoke EBAM T-1,EBAM,FALSE,NA,FALSE,FALSE,FALSE,FALSE,FALSE,FALSE,FALSE,FALSE,FALSE,2026-08-27T05:00:00Z,-105.332687,35.973637,1
2608270600,35.973614,-105.33268,0,417000,8,11,16.7,11.7,0,NA,20.4,43,0.8,312,14.1,0,AQB Smoke EBAM T-1,EBAM,FALSE,NA,FALSE,FALSE,FALSE,FALSE,FALSE,FALSE,FALSE,FALSE,FALSE,2026-08-27T06:00:00Z,-105.332687,35.973637,1
2608270700,35.973614,-105.33268,0,417000,1,-1.999,16.7,11.4,0,NA,19.9,43,1.2,261,14.1,0,AQB Smoke EBAM T-1,EBAM,FALSE,NA,FALSE,FALSE,FALSE,FALSE,FALSE,FALSE,FALSE,FALSE,FALSE,2026-08-27T07:00:00Z,-105.332687,35.973637,1
2608270800,35.973614,-105.33268,0,417000,4,5,16.7,10.4,0,NA,19.5,43,0.8,287,14.1,0,AQB Smoke EBAM T-1,EBAM,FALSE,NA,FALSE,FALSE,FALSE,FALSE,FALSE,FALSE,FALSE,FALSE,FALSE,2026-08-27T08:00:00Z,-105.332687,35.973637,1
2608270900,35.973614,-105.33268,0,417000,2,2,16.7,9.6,0,NA,18.8,44,0.7,276,14,0,AQB Smoke EBAM T-1,EBAM,FALSE,NA,FALSE,FALSE,FALSE,FALSE,FALSE,FALSE,FALSE,FALSE,FALSE,2026-08-27T09:00:00Z,-105.332687,35.973637,1
2608271000,35.973614,-105.33268,0,417000,2,5,16.7,8.6,0,NA,17.8,44,0.5,228,14,0,AQB Smoke EBAM T-1,EBAM,FALSE,NA,FALSE,FALSE,FALSE,FALSE,FALSE,FALSE,FALSE,FALSE,FALSE,2026-08-27T10:00:00Z,-105.332687,35.973637,1
2608271100,35.973614,-105.33268,0,417000,-3.999,-4.999,16.7,7.8,0,NA,17.3,45,0.8,272,14,0,AQB Smoke EBAM T-1,EBAM,FALSE,NA,FALSE,FALSE,FALSE,FALSE,FALSE,FALSE,FALSE,FALSE,FALSE,2026-08-27T11:00:00Z,-105.332687,35.973637,1
2608271200,35.973614,-105.33268,0,417000,1,-4.999,16.7,7.5,0,NA,17,45,1,287,14,0,AQB Smoke EBAM T-1,EBAM,FALSE,NA,FALSE,FALSE,FALSE,FALSE,FALSE,FALSE,FALSE,FALSE,FALSE,2026-08-27T12:00:00Z,-105.332687,35.973637,1
2608271300,35.973614,-105.33268,0,417000,11,28,16.7,7.5,0,NA,17,44,0.8,283,14,0,AQB Smoke EBAM T-1,EBAM,FALSE,NA,FALSE,FALSE,FALSE,FALSE,FALSE,FALSE,FALSE,FALSE,FALSE,2026-08-27T13:00:00Z,-105.332687,35.973637,1
2608271400,35.973614,-105.33268,0,417000,-4.999,-4.999,16.7,10.6,0,NA,19.4,38,0.4,223,14.1,0,AQB Smoke EBAM T-1,EBAM,FALSE,NA,FALSE,FALSE,FALSE,FALSE,FALSE,FALSE,FALSE,FALSE,FALSE,2026-08-27T14:00:00Z,-105.332687,35.973637,1
2608271500,35.973614,-105.33268,0,417000,1,3,16.7,14.6,0,NA,25.9,27,0.7,351,14.1,0,AQB Smoke EBAM T-1,EBAM,FALSE,NA,FALSE,FALSE,FALSE,FALSE,FALSE,FALSE,FALSE,FALSE,FALSE,2026-08-27T15:00:00Z,-105.332687,35.973637,1
2608271600,35.97366,-105.332687,0,417000,0,0,16.7,19.7,0,NA,32.6,19,0.7,135,14,0,AQB Smoke EBAM T-1,EBAM,FALSE,NA,FALSE,FALSE,FALSE,FALSE,FALSE,FALSE,FALSE,FALSE,FALSE,2026-08-27T16:00:00Z,-105.332687,35.973637,1
2608271700,35.97366,-105.332687,0,417000,4,5,16.7,23,0,NA,38.5,14,0.9,72,14,0,AQB Smoke EBAM T-1,EBAM,FALSE,NA,FALSE,FALSE,FALSE,FALSE,FALSE,FALSE,FALSE,FALSE,FALSE,2026-08-27T17:00:00Z,-105.332687,35.973637,1
2608271800,35.97366,-105.332687,0,417000,-2.999,-4.999,16.7,24,0,NA,39,14,0.8,141,14,0,AQB Smoke EBAM T-1,EBAM,FALSE,NA,FALSE,FALSE,FALSE,FALSE,FALSE,FALSE,FALSE,FALSE,FALSE,2026-08-27T18:00:00Z,-105.332687,35.973637,1
2608271900,35.97366,-105.332687,0,417000,2,3,16.7,28.3,0,NA,44.3,10,1.2,183,14,0,AQB Smoke EBAM T-1,EBAM,FALSE,NA,FALSE,FALSE,FALSE,FALSE,FALSE,FALSE,FALSE,FALSE,FALSE,2026-08-27T19:00:00Z,-105.332687,35.973637,1
2608272000,35.97366,-105.332687,0,417000,13,12,16.7,26.3,0,NA,43.7,11,2.8,206,14,0,AQB Smoke EBAM T-1,EBAM,FALSE,NA,FALSE,FALSE,FALSE,FALSE,FALSE,FALSE,FALSE,FALSE,FALSE,2026-08-27T20:00:00Z,-105.332687,35.973637,1
2608272100,35.97366,-105.332687,0,417000,1,5,16.7,25.6,0,NA,41.1,12,2.7,175,14,0,AQB Smoke EBAM T-1,EBAM,FALSE,NA,FALSE,FALSE,FALSE,FALSE,FALSE,FALSE,FALSE,FALSE,FALSE,2026-08-27T21:00:00Z,-105.332687,35.973637,1
2608272200,35.97366,-105.332687,0,417000,3,3,16.7,21.9,0,NA,37,14,1.8,58,14,0,AQB Smoke EBAM T-1,EBAM,FALSE,NA,FALSE,FALSE,FALSE,FALSE,FALSE,FALSE,FALSE,FALSE,FALSE,2026-08-27T22:00:00Z,-105.332687,35.973637,1
2608272300,35.97366,-105.332687,0,417000,1,-4.999,16.6,21,0,NA,33.9,17,1,74,14.1,0,AQB Smoke EBAM T-1,EBAM,FALSE,NA,FALSE,FALSE,FALSE,FALSE,FALSE,FALSE,FALSE,FALSE,FALSE,2026-08-27T23:00:00Z,-105.332687,35.973637,1
2608280000,35.97366,-105.332687,0,417000,-0.9999,4,16.7,21.9,0,NA,33.4,17,1.8,194,14.1,0,AQB Smoke EBAM T-1,EBAM,FALSE,NA,FALSE,FALSE,FALSE,FALSE,FALSE,FALSE,FALSE,FALSE,FALSE,2026-08-28T00:00:00Z,-105.332687,35.973637,1
2608280100,35.97366,-105.332687,0,417000,2,0,16.7,20.6,0,NA,31.8,18,1,151,14.1,0,AQB Smoke EBAM T-1,EBAM,FALSE,NA,FALSE,FALSE,FALSE,FALSE,FALSE,FALSE,FALSE,FALSE,FALSE,2026-08-28T01:00:00Z,-105.332687,35.973637,1
2608280200,35.97366,-105.332687,0,417000,7,9,16.7,19.2,0,NA,30.7,22,0.6,129,14.1,0,AQB Smoke EBAM T-1,EBAM,FALSE,NA,FALSE,FALSE,FALSE,FALSE,FALSE,FALSE,FALSE,FALSE,FALSE,2026-08-28T02:00:00Z,-105.332687,35.973637,1
2608280300,35.97366,-105.332687,0,417000,3,6,16.7,17.1,0,NA,27.3,27,1.2,104,14.1,0,AQB Smoke EBAM T-1,EBAM,FALSE,NA,FALSE,FALSE,FALSE,FALSE,FALSE,FALSE,FALSE,FALSE,FALSE,2026-08-28T03:00:00Z,-105.332687,35.973637,1
2608280400,35.97366,-105.332687,0,417000,4,2,16.7,15.6,0,NA,25.2,30,0.5,231,14.1,0,AQB Smoke EBAM T-1,EBAM,FALSE,NA,FALSE,FALSE,FALSE,FALSE,FALSE,FALSE,FALSE,FALSE,FALSE,2026-08-28T04:00:00Z,-105.332687,35.973637,1
2608280500,35.97366,-105.332687,0,417000,3,1,16.7,14.9,0,NA,24.2,33,1,257,14.1,0,AQB Smoke EBAM T-1,EBAM,FALSE,NA,FALSE,FALSE,FALSE,FALSE,FALSE,FALSE,FALSE,FALSE,FALSE,2026-08-28T05:00:00Z,-105.332687,35.973637,1
2608280600,35.97366,-105.332687,0,417000,1,2,16.7,14.7,0,NA,23.1,34,2.2,254,14.1,0,AQB Smoke EBAM T-1,EBAM,FALSE,NA,FALSE,FALSE,FALSE,FALSE,FALSE,FALSE,FALSE,FALSE,FALSE,2026-08-28T06:00:00Z,-105.332687,35.973637,1
2608280700,35.97366,-105.332687,0,417000,5,3,16.7,13.9,0,NA,22.3,36,1.5,269,14.1,0,AQB Smoke EBAM T-1,EBAM,FALSE,NA,FALSE,FALSE,FALSE,FALSE,FALSE,FALSE,FALSE,FALSE,FALSE,2026-08-28T07:00:00Z,-105.332687,35.973637,1
2608280800,35.97366,-105.332687,0,417000,6,7,16.7,12.2,0,NA,20.9,39,1,267,14.1,0,AQB Smoke EBAM T-1,EBAM,FALSE,NA,FALSE,FALSE,FALSE,FALSE,FALSE,FALSE,FALSE,FALSE,FALSE,2026-08-28T08:00:00Z,-105.332687,35.973637,1
2608280900,35.97366,-105.332687,0,417000,-1.999,-0.9999,16.7,11.3,0,NA,19.8,40,1.1,280,14.1,0,AQB Smoke EBAM T-1,EBAM,FALSE,NA,FALSE,FALSE,FALSE,FALSE,FALSE,FALSE,FALSE,FALSE,FALSE,2026-08-28T09:00:00Z,-105.332687,35.973637,1
2608281000,35.97366,-105.332687,0,417000,5,4,16.7,10,0,NA,18.6,41,0.8,274,14.1,0,AQB Smoke EBAM T-1,EBAM,FALSE,NA,FALSE,FALSE,FALSE,FALSE,FALSE,FALSE,FALSE,FALSE,FALSE,2026-08-28T10:00:00Z,-105.332687,35.973637,1
2608281100,35.97366,-105.332687,0,417000,7,5,16.7,9.4,0,NA,17.8,42,0.8,280,14.1,0,AQB Smoke EBAM T-1,EBAM,FALSE,NA,FALSE,FALSE,FALSE,FALSE,FALSE,FALSE,FALSE,FALSE,FALSE,2026-08-28T11:00:00Z,-105.332687,35.973637,1
2608281200,35.97366,-105.332687,0,417000,3,7,16.7,8.7,0,NA,17.2,43,0.6,294,14.1,0,AQB Smoke EBAM T-1,EBAM,FALSE,NA,FALSE,FALSE,FALSE,FALSE,FALSE,FALSE,FALSE,FALSE,FALSE,2026-08-28T12:00:00Z,-105.332687,35.973637,1
2608281300,35.97366,-105.332687,0,417000,2,-4.999,16.7,8,0,NA,16.7,44,0.6,239,14.1,0,AQB Smoke EBAM T-1,EBAM,FALSE,NA,FALSE,FALSE,FALSE,FALSE,FALSE,FALSE,FALSE,FALSE,FALSE,2026-08-28T13:00:00Z,-105.332687,35.973637,1
2608281400,35.97366,-105.332687,0,417000,-4.999,-3.999,16.7,10.6,0,NA,19.3,38,0.6,241,14.1,0,AQB Smoke EBAM T-1,EBAM,FALSE,NA,FALSE,FALSE,FALSE,FALSE,FALSE,FALSE,FALSE,FALSE,FALSE,2026-08-28T14:00:00Z,-105.332687,35.973637,1
2608281500,35.973701,-105.332703,0,417000,2,-0.9999,16.7,16.1,0,NA,26.7,25,0.5,267,14.1,0,AQB Smoke EBAM T-1,EBAM,FALSE,NA,FALSE,FALSE,FALSE,FALSE,FALSE,FALSE,FALSE,FALSE,FALSE,2026-08-28T15:00:00Z,-105.332687,35.973637,1
2608281600,35.973701,-105.332703,0,417000,2,3,16.7,20.9,0,NA,33.8,18,0.8,95,14.1,0,AQB Smoke EBAM T-1,EBAM,FALSE,NA,FALSE,FALSE,FALSE,FALSE,FALSE,FALSE,FALSE,FALSE,FALSE,2026-08-28T16:00:00Z,-105.332687,35.973637,1
2608281700,35.973701,-105.332703,0,417000,14,21,16.7,25.9,0,NA,40.7,13,0.7,164,14,0,AQB Smoke EBAM T-1,EBAM,FALSE,NA,FALSE,FALSE,FALSE,FALSE,FALSE,FALSE,FALSE,FALSE,FALSE,2026-08-28T17:00:00Z,-105.332687,35.973637,1
2608281800,35.973701,-105.332703,0,417000,27,22,16.7,29,0,NA,45.9,8,1,231,14,0,AQB Smoke EBAM T-1,EBAM,FALSE,NA,FALSE,FALSE,FALSE,FALSE,FALSE,FALSE,FALSE,FALSE,FALSE,2026-08-28T18:00:00Z,-105.332687,35.973637,1
2608281900,35.973701,-105.332703,0,417000,9,10,16.7,30.3,0,NA,47.4,7,1.6,181,14,0,AQB Smoke EBAM T-1,EBAM,FALSE,NA,FALSE,FALSE,FALSE,FALSE,FALSE,FALSE,FALSE,FALSE,FALSE,2026-08-28T19:00:00Z,-105.332687,35.973637,1
2608282000,35.973701,-105.332703,0,417000,15,13,16.7,29.6,0,NA,47.3,8,3,213,14,0,AQB Smoke EBAM T-1,EBAM,FALSE,NA,FALSE,FALSE,FALSE,FALSE,FALSE,FALSE,FALSE,FALSE,FALSE,2026-08-28T20:00:00Z,-105.332687,35.973637,1
2608282100,35.973701,-105.332703,0,417000,17,21,16.7,24.9,0,NA,41.5,13,2.3,159,14.1,0,AQB Smoke EBAM T-1,EBAM,FALSE,NA,FALSE,FALSE,FALSE,FALSE,FALSE,FALSE,FALSE,FALSE,FALSE,2026-08-28T21:00:00Z,-105.332687,35.973637,1
2608282300,35.973625,-105.33271,0,417000,-4.999,-4.999,16.5,26.5,0,NA,37.7,13,0.9,293,14.1,256,AQB Smoke EBAM T-1,EBAM,FALSE,NA,FALSE,FALSE,FALSE,FALSE,FALSE,FALSE,FALSE,FALSE,FALSE,2026-08-28T23:00:00Z,-105.332687,35.973637,1
2608290000,35.973625,-105.33271,0,417000,4,1,16.7,24.3,0,NA,36.6,14,1.2,312,14.1,0,AQB Smoke EBAM T-1,EBAM,FALSE,NA,FALSE,FALSE,FALSE,FALSE,FALSE,FALSE,FALSE,FALSE,FALSE,2026-08-29T00:00:00Z,-105.332687,35.973637,1
2608290100,35.973625,-105.33271,0,417000,4,8,16.7,23.3,0,NA,35.3,16,0.7,295,14.1,0,AQB Smoke EBAM T-1,EBAM,FALSE,NA,FALSE,FALSE,FALSE,FALSE,FALSE,FALSE,FALSE,FALSE,FALSE,2026-08-29T01:00:00Z,-105.332687,35.973637,1
2608290200,35.973625,-105.33271,0,417000,3,3,16.7,19.6,0,NA,30.9,22,1,243,14.1,0,AQB Smoke EBAM T-1,EBAM,FALSE,NA,FALSE,FALSE,FALSE,FALSE,FALSE,FALSE,FALSE,FALSE,FALSE,2026-08-29T02:00:00Z,-105.332687,35.973637,1
2608290300,35.973625,-105.33271,0,417000,2,0,16.7,16.8,0,NA,26.5,27,1.3,267,14.1,0,AQB Smoke EBAM T-1,EBAM,FALSE,NA,FALSE,FALSE,FALSE,FALSE,FALSE,FALSE,FALSE,FALSE,FALSE,2026-08-29T03:00:00Z,-105.332687,35.973637,1
2608290400,35.973625,-105.33271,0,417000,5,5,16.7,15.5,0,NA,24.2,28,1.3,273,14.1,0,AQB Smoke EBAM T-1,EBAM,FALSE,NA,FALSE,FALSE,FALSE,FALSE,FALSE,FALSE,FALSE,FALSE,FALSE,2026-08-29T04:00:00Z,-105.332687,35.973637,1
2608290500,35.973625,-105.33271,0,417000,3,2,16.7,13.9,0,NA,22.4,32,1,324,14.1,0,AQB Smoke EBAM T-1,EBAM,FALSE,NA,FALSE,FALSE,FALSE,FALSE,FALSE,FALSE,FALSE,FALSE,FALSE,2026-08-29T05:00:00Z,-105.332687,35.973637,1
2608290600,35.973625,-105.33271,0,417000,4,5,16.7,13.1,0,NA,21.5,34,1,241,14.1,0,AQB Smoke EBAM T-1,EBAM,FALSE,NA,FALSE,FALSE,FALSE,FALSE,FALSE,FALSE,FALSE,FALSE,FALSE,2026-08-29T06:00:00Z,-105.332687,35.973637,1
2608290700,35.973625,-105.33271,0,417000,5,3,16.7,12.5,0,NA,21,34,0.9,275,14.1,0,AQB Smoke EBAM T-1,EBAM,FALSE,NA,FALSE,FALSE,FALSE,FALSE,FALSE,FALSE,FALSE,FALSE,FALSE,2026-08-29T07:00:00Z,-105.332687,35.973637,1
2608290800,35.973625,-105.33271,0,417000,5,8,16.7,11.9,0,NA,20.4,35,0.7,318,14.1,0,AQB Smoke EBAM T-1,EBAM,FALSE,NA,FALSE,FALSE,FALSE,FALSE,FALSE,FALSE,FALSE,FALSE,FALSE,2026-08-29T08:00:00Z,-105.332687,35.973637,1
2608290900,35.973625,-105.33271,0,417000,4,2,16.7,10.3,0,NA,19.1,39,0.5,287,14.1,0,AQB Smoke EBAM T-1,EBAM,FALSE,NA,FALSE,FALSE,FALSE,FALSE,FALSE,FALSE,FALSE,FALSE,FALSE,2026-08-29T09:00:00Z,-105.332687,35.973637,1
2608291000,35.973625,-105.33271,0,417000,6,9,16.7,9.1,0,NA,18,41,0.5,324,14.1,0,AQB Smoke EBAM T-1,EBAM,FALSE,NA,FALSE,FALSE,FALSE,FALSE,FALSE,FALSE,FALSE,FALSE,FALSE,2026-08-29T10:00:00Z,-105.332687,35.973637,1
2608291100,35.973625,-105.33271,0,417000,6,3,16.7,8.6,0,NA,17.2,43,0.6,338,14.1,0,AQB Smoke EBAM T-1,EBAM,FALSE,NA,FALSE,FALSE,FALSE,FALSE,FALSE,FALSE,FALSE,FALSE,FALSE,2026-08-29T11:00:00Z,-105.332687,35.973637,1
2608291200,35.973625,-105.33271,0,417000,1,-4.999,16.7,8.1,0,NA,16.6,43,0.6,97,14.1,0,AQB Smoke EBAM T-1,EBAM,FALSE,NA,FALSE,FALSE,FALSE,FALSE,FALSE,FALSE,FALSE,FALSE,FALSE,2026-08-29T12:00:00Z,-105.332687,35.973637,1
2608291300,35.973625,-105.33271,0,417000,6,23,16.7,8,0,NA,16.6,43,0.5,254,14.1,0,AQB Smoke EBAM T-1,EBAM,FALSE,NA,FALSE,FALSE,FALSE,FALSE,FALSE,FALSE,FALSE,FALSE,FALSE,2026-08-29T13:00:00Z,-105.332687,35.973637,1
2608291400,35.973625,-105.33271,0,417000,-4.999,-4.999,16.7,11.3,0,NA,19.4,37,0.6,126,14.1,0,AQB Smoke EBAM T-1,EBAM,FALSE,NA,FALSE,FALSE,FALSE,FALSE,FALSE,FALSE,FALSE,FALSE,FALSE,2026-08-29T14:00:00Z,-105.332687,35.973637,1
2608291500,35.973625,-105.33271,0,417000,0,3,16.7,19.9,0,NA,27.9,22,1.4,327,14.1,0,AQB Smoke EBAM T-1,EBAM,FALSE,NA,FALSE,FALSE,FALSE,FALSE,FALSE,FALSE,FALSE,FALSE,FALSE,2026-08-29T15:00:00Z,-105.332687,35.973637,1
2608291600,35.973625,-105.33271,0,417000,6,1,16.7,24.3,0,NA,35,14,2.8,336,14.1,0,AQB Smoke EBAM T-1,EBAM,FALSE,NA,FALSE,FALSE,FALSE,FALSE,FALSE,FALSE,FALSE,FALSE,FALSE,2026-08-29T16:00:00Z,-105.332687,35.973637,1
2608291700,35.973625,-105.33271,0,417000,1,1,16.7,26.6,0,NA,39.6,11,2.3,329,14.1,0,AQB Smoke EBAM T-1,EBAM,FALSE,NA,FALSE,FALSE,FALSE,FALSE,FALSE,FALSE,FALSE,FALSE,FALSE,2026-08-29T17:00:00Z,-105.332687,35.973637,1
2608291800,35.973625,-105.33271,0,417000,12,18,16.7,29,0,NA,43.7,9,1.5,324,14.1,0,AQB Smoke EBAM T-1,EBAM,FALSE,NA,FALSE,FALSE,FALSE,FALSE,FALSE,FALSE,FALSE,FALSE,FALSE,2026-08-29T18:00:00Z,-105.332687,35.973637,1
2608291900,35.973625,-105.33271,0,417000,8,2,16.7,28.8,0,NA,44.3,8,1.6,328,14,0,AQB Smoke EBAM T-1,EBAM,FALSE,NA,FALSE,FALSE,FALSE,FALSE,FALSE,FALSE,FALSE,FALSE,FALSE,2026-08-29T19:00:00Z,-105.332687,35.973637,1
2608292000,35.973625,-105.33271,0,417000,12,12,16.7,28.8,0,NA,44.4,8,1.4,318,14,0,AQB Smoke EBAM T-1,EBAM,FALSE,NA,FALSE,FALSE,FALSE,FALSE,FALSE,FALSE,FALSE,FALSE,FALSE,2026-08-29T20:00:00Z,-105.332687,35.973637,1
2608292100,35.973625,-105.33271,0,417000,-0.9999,-4.999,16.7,31,0,NA,46.4,7,1.6,271,14,0,AQB Smoke EBAM T-1,EBAM,FALSE,NA,FALSE,FALSE,FALSE,FALSE,FALSE,FALSE,FALSE,FALSE,FALSE,2026-08-29T21:00:00Z,-105.332687,35.973637,1
2608292200,35.973652,-105.332741,0,417000,17,21,16.7,30,0,NA,46.6,7,1.7,257,14,0,AQB Smoke EBAM T-1,EBAM,FALSE,NA,FALSE,FALSE,FALSE,FALSE,FALSE,FALSE,FALSE,FALSE,FALSE,2026-08-29T22:00:00Z,-105.332687,35.973637,1
2608292300,35.973652,-105.332741,0,417000,-4.999,-4.999,16.6,28.1,0,NA,41.9,10,1.1,307,14.1,0,AQB Smoke EBAM T-1,EBAM,FALSE,NA,FALSE,FALSE,FALSE,FALSE,FALSE,FALSE,FALSE,FALSE,FALSE,2026-08-29T23:00:00Z,-105.332687,35.973637,1
2608300000,35.973652,-105.332741,0,417000,5,6,16.7,27.9,0,NA,41.6,10,1.8,312,14.1,0,AQB Smoke EBAM T-1,EBAM,FALSE,NA,FALSE,FALSE,FALSE,FALSE,FALSE,FALSE,FALSE,FALSE,FALSE,2026-08-30T00:00:00Z,-105.332687,35.973637,1
2608300100,35.973652,-105.332741,0,417000,-0.9999,-2.999,16.7,25.1,0,NA,37.3,13,2,304,14.1,0,AQB Smoke EBAM T-1,EBAM,FALSE,NA,FALSE,FALSE,FALSE,FALSE,FALSE,FALSE,FALSE,FALSE,FALSE,2026-08-30T01:00:00Z,-105.332687,35.973637,1
2608300200,35.973652,-105.332741,0,417000,6,6,16.7,22.7,0,NA,33.5,17,1.6,281,14.1,0,AQB Smoke EBAM T-1,EBAM,FALSE,NA,FALSE,FALSE,FALSE,FALSE,FALSE,FALSE,FALSE,FALSE,FALSE,2026-08-30T02:00:00Z,-105.332687,35.973637,1
2608300300,35.973652,-105.332741,0,417000,-0.9999,-0.9999,16.7,19.8,0,NA,29.2,21,1,244,14.1,0,AQB Smoke EBAM T-1,EBAM,FALSE,NA,FALSE,FALSE,FALSE,FALSE,FALSE,FALSE,FALSE,FALSE,FALSE,2026-08-30T03:00:00Z,-105.332687,35.973637,1
2608300400,35.973652,-105.332741,0,417000,0,1,16.7,19.1,0,NA,27.1,23,1.4,259,14.1,0,AQB Smoke EBAM T-1,EBAM,FALSE,NA,FALSE,FALSE,FALSE,FALSE,FALSE,FALSE,FALSE,FALSE,FALSE,2026-08-30T04:00:00Z,-105.332687,35.973637,1
2608300500,35.973652,-105.332741,0,417000,3,2,16.7,20.5,0,NA,27.8,23,3.2,332,14.1,0,AQB Smoke EBAM T-1,EBAM,FALSE,NA,FALSE,FALSE,FALSE,FALSE,FALSE,FALSE,FALSE,FALSE,FALSE,2026-08-30T05:00:00Z,-105.332687,35.973637,1
2608300600,35.973652,-105.332741,0,417000,1,4,16.7,18.4,0,NA,26.5,26,3.2,332,14.2,0,AQB Smoke EBAM T-1,EBAM,FALSE,NA,FALSE,FALSE,FALSE,FALSE,FALSE,FALSE,FALSE,FALSE,FALSE,2026-08-30T06:00:00Z,-105.332687,35.973637,1
2608300700,35.973652,-105.332741,0,417000,0,2,16.7,18.2,0,NA,26,26,2.3,320,14.2,0,AQB Smoke EBAM T-1,EBAM,FALSE,NA,FALSE,FALSE,FALSE,FALSE,FALSE,FALSE,FALSE,FALSE,FALSE,2026-08-30T07:00:00Z,-105.332687,35.973637,1
2608300800,35.973652,-105.332741,0,417000,4,3,16.7,17.5,0,NA,25.6,27,2,240,14.2,0,AQB Smoke EBAM T-1,EBAM,FALSE,NA,FALSE,FALSE,FALSE,FALSE,FALSE,FALSE,FALSE,FALSE,FALSE,2026-08-30T08:00:00Z,-105.332687,35.973637,1
2608300900,35.973652,-105.332741,0,417000,4,-0.9999,16.7,16.3,0,NA,24.2,29,1.9,245,14.2,0,AQB Smoke EBAM T-1,EBAM,FALSE,NA,FALSE,FALSE,FALSE,FALSE,FALSE,FALSE,FALSE,FALSE,FALSE,2026-08-30T09:00:00Z,-105.332687,35.973637,1
2608301000,35.973652,-105.332741,0,417000,0,3,16.7,15.5,0,NA,23.2,30,1.6,256,14.2,0,AQB Smoke EBAM T-1,EBAM,FALSE,NA,FALSE,FALSE,FALSE,FALSE,FALSE,FALSE,FALSE,FALSE,FALSE,2026-08-30T10:00:00Z,-105.332687,35.973637,1
2608301100,35.973652,-105.332741,0,417000,4,3,16.7,13.7,0,NA,22.3,32,0.8,239,14.2,0,AQB Smoke EBAM T-1,EBAM,FALSE,NA,FALSE,FALSE,FALSE,FALSE,FALSE,FALSE,FALSE,FALSE,FALSE,2026-08-30T11:00:00Z,-105.332687,35.973637,1
2608301200,35.973652,-105.332741,0,417000,3,2,16.7,12,0,NA,21,36,0.6,119,14.2,0,AQB Smoke EBAM T-1,EBAM,FALSE,NA,FALSE,FALSE,FALSE,FALSE,FALSE,FALSE,FALSE,FALSE,FALSE,2026-08-30T12:00:00Z,-105.332687,35.973637,1
2608301300,35.973652,-105.332741,0,417000,0,2,16.7,11.3,0,NA,19.9,38,0.6,232,14.2,0,AQB Smoke EBAM T-1,EBAM,FALSE,NA,FALSE,FALSE,FALSE,FALSE,FALSE,FALSE,FALSE,FALSE,FALSE,2026-08-30T13:00:00Z,-105.332687,35.973637,1
2608301400,35.973652,-105.332741,0,417000,-4.999,-4.999,16.7,15,0,NA,22.7,31,0.9,306,14.2,0,AQB Smoke EBAM T-1,EBAM,FALSE,NA,FALSE,FALSE,FALSE,FALSE,FALSE,FALSE,FALSE,FALSE,FALSE,2026-08-30T14:00:00Z,-105.332687,35.973637,1
2608301500,35.973652,-105.332741,0,417000,1,6,16.7,21.5,0,NA,31,20,1.3,320,14.2,0,AQB Smoke EBAM T-1,EBAM,FALSE,NA,FALSE,FALSE,FALSE,FALSE,FALSE,FALSE,FALSE,FALSE,FALSE,2026-08-30T15:00:00Z,-105.332687,35.973637,1
2608301600,35.973652,-105.332741,0,417000,0,-3.999,16.7,23.4,0,NA,34.9,15,1.9,331,14.1,0,AQB Smoke EBAM T-1,EBAM,FALSE,NA,FALSE,FALSE,FALSE,FALSE,FALSE,FALSE,FALSE,FALSE,FALSE,2026-08-30T16:00:00Z,-105.332687,35.973637,1
2608301700,35.973652,-105.332741,0,417000,2,1,16.7,26.7,0,NA,39.9,11,1.3,292,14.1,0,AQB Smoke EBAM T-1,EBAM,FALSE,NA,FALSE,FALSE,FALSE,FALSE,FALSE,FALSE,FALSE,FALSE,FALSE,2026-08-30T17:00:00Z,-105.332687,35.973637,1
2608301800,35.973652,-105.332741,0,417000,19,26,16.7,28.3,0,NA,44.3,9,1.4,266,14.1,0,AQB Smoke EBAM T-1,EBAM,FALSE,NA,FALSE,FALSE,FALSE,FALSE,FALSE,FALSE,FALSE,FALSE,FALSE,2026-08-30T18:00:00Z,-105.332687,35.973637,1
2608301900,35.973652,-105.332741,0,417000,21,15,16.7,29.6,0,NA,45.3,8,1.9,300,14.1,0,AQB Smoke EBAM T-1,EBAM,FALSE,NA,FALSE,FALSE,FALSE,FALSE,FALSE,FALSE,FALSE,FALSE,FALSE,2026-08-30T19:00:00Z,-105.332687,35.973637,1
2608302000,35.973652,-105.332741,0,417000,21,18,16.7,30.1,0,NA,46.4,7,2.6,236,14.1,0,AQB Smoke EBAM T-1,EBAM,FALSE,NA,FALSE,FALSE,FALSE,FALSE,FALSE,FALSE,FALSE,FALSE,FALSE,2026-08-30T20:00:00Z,-105.332687,35.973637,1
2608302100,35.973682,-105.332726,0,417000,6,5,16.7,29.6,0,NA,45.5,7,2.8,242,14.1,0,AQB Smoke EBAM T-1,EBAM,FALSE,NA,FALSE,FALSE,FALSE,FALSE,FALSE,FALSE,FALSE,FALSE,FALSE,2026-08-30T21:00:00Z,-105.332687,35.973637,1
2608302200,35.973682,-105.332726,0,417000,4,7,16.7,28.4,0,NA,43.1,8,2.8,253,14.1,0,AQB Smoke EBAM T-1,EBAM,FALSE,NA,FALSE,FALSE,FALSE,FALSE,FALSE,FALSE,FALSE,FALSE,FALSE,2026-08-30T22:00:00Z,-105.332687,35.973637,1
2608302300,35.973682,-105.332726,0,417000,-4.999,-4.999,16.6,27.5,0,NA,41.2,10,2.2,288,14.1,0,AQB Smoke EBAM T-1,EBAM,FALSE,NA,FALSE,FALSE,FALSE,FALSE,FALSE,FALSE,FALSE,FALSE,FALSE,2026-08-30T23:00:00Z,-105.332687,35.973637,1
AQB Smoke EBAM T-1, has 1 unique
location(s)EBAM monitor## No CO data for this monitor
Currently disabled.
Please contact Jonathan Callahan or Gina Wing if you have ideas for additional functionality.